Time;durP1;ratioP1;P1;durP2;ratioP2;P2;SDS_P1;SDS_P2;PMS_P1;PMS_P2;Temp;Humidity;BMP_temperature;BMP_pressure;BME280_temperature;BME280_humidity;BME280_pressure;Samples;Min_cycle;Max_cycle;Signal;HPM_P1;HPM_P2
2023/04/26 00:00:07;;;;;;;4.85;2.80;;;;;;;;;;4994923;28;20030;-79
2023/04/26 00:02:34;;;;;;;5.38;2.30;;;;;;;;;;4994348;28;20046;-78
2023/04/26 00:05:02;;;;;;;7.35;2.33;;;;;;;;;;5010402;28;20049;-79
2023/04/26 00:07:29;;;;;;;5.78;2.10;;;;;;;;;;4995351;28;20070;-79
2023/04/26 00:09:55;;;;;;;5.30;2.08;;;;;;;;;;4993614;28;20022;-79
2023/04/26 00:12:21;;;;;;;6.38;1.83;;;;;;;;;;4994966;28;20507;-80
2023/04/26 00:14:46;;;;;;;12.73;1.95;;;;;;;;;;4993885;28;20030;-79
2023/04/26 00:17:12;;;;;;;5.90;1.75;;;;;;;;;;5010383;28;20136;-79
2023/04/26 00:19:39;;;;;;;8.98;1.77;;;;;;;;;;5009867;28;20503;-79
2023/04/26 00:22:05;;;;;;;7.65;1.92;;;;;;;;;;4995499;28;20039;-79
2023/04/26 00:24:31;;;;;;;6.80;1.70;;;;;;;;;;4993735;28;20034;-79
2023/04/26 00:26:57;;;;;;;5.35;1.58;;;;;;;;;;4995092;28;20088;-79
2023/04/26 00:29:23;;;;;;;4.88;1.90;;;;;;;;;;4994488;28;20045;-78
2023/04/26 00:31:49;;;;;;;12.15;2.35;;;;;;;;;;4993764;28;20109;-79
2023/04/26 00:34:15;;;;;;;7.13;1.88;;;;;;;;;;4994919;28;20493;-78
2023/04/26 00:36:41;;;;;;;4.50;1.60;;;;;;;;;;5010072;28;20451;-78
2023/04/26 00:39:08;;;;;;;3.83;1.52;;;;;;;;;;4993035;28;20037;-78
2023/04/26 00:41:34;;;;;;;4.57;1.60;;;;;;;;;;5009826;28;20034;-79
2023/04/26 00:43:59;;;;;;;3.40;1.40;;;;;;;;;;4994735;28;20037;-78
2023/04/26 00:46:28;;;;;;;3.00;1.38;;;;;;;;;;5009968;28;20045;-79
2023/04/26 00:48:54;;;;;;;2.47;1.30;;;;;;;;;;4992964;28;20030;-79
2023/04/26 00:51:20;;;;;;;3.47;1.50;;;;;;;;;;5009728;28;20031;-79
2023/04/26 00:53:47;;;;;;;5.82;1.80;;;;;;;;;;4994691;28;20026;-79
2023/04/26 00:56:15;;;;;;;3.00;1.30;;;;;;;;;;4994408;28;20034;-79
2023/04/26 00:58:41;;;;;;;3.88;1.33;;;;;;;;;;4992894;28;20444;-79
2023/04/26 01:01:07;;;;;;;2.97;1.42;;;;;;;;;;5008983;28;20077;-79
2023/04/26 01:03:34;;;;;;;2.67;1.20;;;;;;;;;;5009492;28;20030;-79
2023/04/26 01:05:59;;;;;;;3.83;1.50;;;;;;;;;;4994328;28;20034;-80
2023/04/26 01:08:25;;;;;;;4.15;1.63;;;;;;;;;;5009285;28;20080;-78
2023/04/26 01:10:52;;;;;;;2.35;1.40;;;;;;;;;;5008978;28;20037;-79
2023/04/26 01:13:17;;;;;;;5.05;1.58;;;;;;;;;;4976895;28;20076;-80
2023/04/26 01:15:47;;;;;;;5.18;1.70;;;;;;;;;;4989197;28;20038;-79
2023/04/26 01:18:14;;;;;;;4.53;2.00;;;;;;;;;;4992891;28;20419;-79
2023/04/26 01:20:41;;;;;;;4.45;1.50;;;;;;;;;;4991708;28;20065;-79
2023/04/26 01:23:10;;;;;;;10.13;2.00;;;;;;;;;;5008406;28;20171;-79
2023/04/26 01:25:38;;;;;;;4.93;1.83;;;;;;;;;;4993221;28;20400;-79
2023/04/26 01:28:03;;;;;;;2.92;1.45;;;;;;;;;;4992822;28;20022;-80
2023/04/26 01:30:29;;;;;;;3.60;1.52;;;;;;;;;;4991502;28;20026;-79
2023/04/26 01:32:55;;;;;;;6.63;1.60;;;;;;;;;;4991139;28;20105;-79
2023/04/26 01:35:21;;;;;;;3.67;1.95;;;;;;;;;;4974619;28;20038;-79
2023/04/26 01:37:48;;;;;;;19.58;4.22;;;;;;;;;;5007706;28;20045;-79
2023/04/26 01:40:13;;;;;;;5.22;2.30;;;;;;;;;;5007172;28;20042;-78
2023/04/26 01:42:39;;;;;;;14.15;7.03;;;;;;;;;;4990853;28;20037;-78
2023/04/26 01:45:06;;;;;;;18.98;9.25;;;;;;;;;;4992296;28;20062;-79
2023/04/26 01:47:51;;;;;;;74.60;39.42;;;;;;;;;;4992482;28;20027;-81
2023/04/26 01:50:17;;;;;;;55.70;30.50;;;;;;;;;;4991826;28;20053;-80
2023/04/26 01:52:43;;;;;;;28.95;16.35;;;;;;;;;;4990697;28;20029;-80
2023/04/26 01:55:10;;;;;;;17.17;8.90;;;;;;;;;;5006860;28;20403;-80
2023/04/26 01:57:36;;;;;;;9.32;6.05;;;;;;;;;;4973852;28;20026;-79
2023/04/26 02:00:03;;;;;;;10.57;6.07;;;;;;;;;;5006904;28;20087;-79
2023/04/26 02:02:38;;;;;;;13.52;6.90;;;;;;;;;;4992360;28;20030;-80
2023/04/26 02:05:04;;;;;;;50.20;24.35;;;;;;;;;;4992647;28;20089;-79
2023/04/26 02:07:31;;;;;;;97.90;43.05;;;;;;;;;;4992491;28;20042;-80
2023/04/26 02:09:57;;;;;;;86.30;39.45;;;;;;;;;;5006950;28;20412;-80
2023/04/26 02:12:23;;;;;;;89.70;36.05;;;;;;;;;;5007423;28;20030;-80
2023/04/26 02:14:48;;;;;;;45.50;19.13;;;;;;;;;;4974848;28;20038;-79
2023/04/26 02:17:16;;;;;;;9.27;5.50;;;;;;;;;;4992134;28;20443;-80
2023/04/26 02:19:42;;;;;;;17.85;4.80;;;;;;;;;;4974539;28;20070;-80
2023/04/26 02:22:08;;;;;;;17.10;3.75;;;;;;;;;;5007117;28;20026;-79
2023/04/26 02:24:33;;;;;;;9.02;2.72;;;;;;;;;;5007156;28;20097;-79
2023/04/26 02:27:03;;;;;;;12.13;3.67;;;;;;;;;;4992032;28;20022;-79
2023/04/26 02:29:35;;;;;;;5.18;2.28;;;;;;;;;;4990585;28;20042;-78
2023/04/26 02:32:01;;;;;;;6.80;2.65;;;;;;;;;;5006751;28;20574;-78
2023/04/26 02:34:28;;;;;;;9.35;2.60;;;;;;;;;;4990371;28;20058;-79
2023/04/26 02:36:54;;;;;;;3.55;1.92;;;;;;;;;;4991587;28;20066;-80
2023/04/26 02:39:21;;;;;;;5.88;2.38;;;;;;;;;;4990120;28;20077;-79
2023/04/26 02:41:48;;;;;;;8.20;2.90;;;;;;;;;;4990299;28;20038;-80
2023/04/26 02:44:14;;;;;;;4.90;2.00;;;;;;;;;;4973128;28;20073;-78
2023/04/26 02:46:40;;;;;;;7.68;1.92;;;;;;;;;;4981044;28;20343;-79
2023/04/26 02:49:05;;;;;;;6.93;2.10;;;;;;;;;;5004475;28;20034;-80
2023/04/26 02:51:32;;;;;;;9.07;2.08;;;;;;;;;;5004297;28;20038;-80
2023/04/26 02:53:58;;;;;;;11.50;2.63;;;;;;;;;;5006517;28;20507;-80
2023/04/26 02:56:24;;;;;;;13.65;2.65;;;;;;;;;;5001686;28;20094;-80
2023/04/26 02:58:50;;;;;;;7.25;3.40;;;;;;;;;;5006544;28;20092;-80
2023/04/26 03:01:17;;;;;;;8.43;3.78;;;;;;;;;;4960956;28;20057;-79
2023/04/26 03:03:43;;;;;;;13.40;3.90;;;;;;;;;;5002972;28;20088;-80
2023/04/26 03:06:09;;;;;;;15.15;5.25;;;;;;;;;;4989395;28;20026;-79
2023/04/26 03:08:35;;;;;;;15.80;3.83;;;;;;;;;;4987779;28;20042;-80
2023/04/26 03:11:04;;;;;;;9.07;2.92;;;;;;;;;;4990408;28;20080;-79
2023/04/26 03:13:31;;;;;;;11.07;3.00;;;;;;;;;;4987798;28;20046;-79
2023/04/26 03:15:57;;;;;;;19.63;3.33;;;;;;;;;;4990184;28;20049;-80
2023/04/26 03:18:23;;;;;;;10.52;3.20;;;;;;;;;;5006071;28;20034;-78
2023/04/26 03:20:49;;;;;;;4.70;2.53;;;;;;;;;;4989568;28;20019;-80
2023/04/26 03:23:17;;;;;;;3.83;2.20;;;;;;;;;;4974513;28;20032;-79
2023/04/26 03:25:42;;;;;;;9.73;2.80;;;;;;;;;;4990514;28;20049;-80
2023/04/26 03:28:10;;;;;;;6.95;2.45;;;;;;;;;;4957227;28;20038;-79
2023/04/26 03:30:35;;;;;;;11.95;3.00;;;;;;;;;;4989347;28;20042;-79
2023/04/26 03:33:02;;;;;;;6.05;2.33;;;;;;;;;;5005846;28;20154;-79
2023/04/26 03:35:27;;;;;;;8.75;2.58;;;;;;;;;;4997987;28;20102;-79
2023/04/26 03:37:54;;;;;;;5.85;2.80;;;;;;;;;;5003757;28;20030;-78
2023/04/26 03:40:21;;;;;;;13.25;3.30;;;;;;;;;;5006359;28;20052;-79
2023/04/26 03:42:49;;;;;;;8.02;3.00;;;;;;;;;;4991103;28;20121;-81
2023/04/26 03:45:15;;;;;;;8.18;3.83;;;;;;;;;;4992400;28;20488;-81
2023/04/26 03:47:42;;;;;;;19.60;4.45;;;;;;;;;;4992850;28;20170;-82
2023/04/26 03:50:19;;;;;;;19.05;3.97;;;;;;;;;;4992794;28;20106;-79
2023/04/26 03:52:45;;;;;;;11.82;3.00;;;;;;;;;;5013435;28;20056;-83
2023/04/26 03:55:11;;;;;;;10.02;2.90;;;;;;;;;;5007140;28;20543;-81
2023/04/26 03:57:37;;;;;;;12.15;3.45;;;;;;;;;;4995937;28;20038;-80
2023/04/26 04:00:12;;;;;;;20.20;4.88;;;;;;;;;;4993730;28;20031;-83
2023/04/26 04:02:41;;;;;;;18.13;3.95;;;;;;;;;;4999992;28;20041;-81
2023/04/26 04:05:10;;;;;;;19.65;4.43;;;;;;;;;;5004477;28;20396;-80
2023/04/26 04:07:36;;;;;;;23.98;4.30;;;;;;;;;;5022931;28;20034;-80
2023/04/26 04:10:03;;;;;;;14.30;3.70;;;;;;;;;;5013821;28;20084;-81
2023/04/26 04:12:29;;;;;;;9.98;2.75;;;;;;;;;;5006154;28;20042;-82
2023/04/26 04:14:55;;;;;;;13.38;3.20;;;;;;;;;;4993574;28;20037;-82
2023/04/26 04:17:26;;;;;;;13.07;3.33;;;;;;;;;;4997987;28;20049;-80
2023/04/26 04:19:53;;;;;;;10.85;3.47;;;;;;;;;;5005439;28;20049;-82
2023/04/26 04:22:19;;;;;;;11.25;3.75;;;;;;;;;;5023410;28;20030;-81
2023/04/26 04:24:46;;;;;;;7.10;3.10;;;;;;;;;;5013491;28;20057;-80
2023/04/26 04:27:12;;;;;;;15.43;3.75;;;;;;;;;;4991468;28;20030;-81
2023/04/26 04:29:41;;;;;;;20.88;4.57;;;;;;;;;;4994307;28;20523;-82
2023/04/26 04:32:07;;;;;;;9.50;3.95;;;;;;;;;;5026473;28;20033;-81
2023/04/26 04:34:36;;;;;;;17.42;4.15;;;;;;;;;;5012842;28;20033;-79
2023/04/26 04:37:03;;;;;;;24.77;5.05;;;;;;;;;;5029080;28;20036;-80
2023/04/26 04:39:29;;;;;;;22.30;4.35;;;;;;;;;;5006551;28;20178;-81
2023/04/26 04:41:57;;;;;;;32.03;5.85;;;;;;;;;;4992754;28;20391;-81
2023/04/26 04:44:25;;;;;;;11.57;3.78;;;;;;;;;;5015923;28;20551;-80
2023/04/26 04:46:53;;;;;;;16.48;3.95;;;;;;;;;;5001797;28;20128;-80
2023/04/26 04:49:20;;;;;;;10.75;3.58;;;;;;;;;;5002042;28;20046;-80
2023/04/26 04:51:46;;;;;;;12.50;3.90;;;;;;;;;;5001454;28;20136;-81
2023/04/26 04:54:17;;;;;;;16.48;3.63;;;;;;;;;;5015819;28;20026;-81
2023/04/26 04:56:48;;;;;;;7.53;3.95;;;;;;;;;;4993948;28;20035;-86
2023/04/26 04:59:15;;;;;;;10.85;3.67;;;;;;;;;;5003103;28;20034;-84
2023/04/26 05:01:44;;;;;;;15.52;4.07;;;;;;;;;;4976525;28;20018;-85
2023/04/26 05:04:15;;;;;;;14.52;5.40;;;;;;;;;;4997010;28;20128;-83
2023/04/26 05:06:43;;;;;;;7.68;3.90;;;;;;;;;;5023627;28;20093;-84
2023/04/26 05:09:10;;;;;;;9.30;4.03;;;;;;;;;;4996298;28;20058;-85
2023/04/26 05:11:36;;;;;;;14.27;4.95;;;;;;;;;;5010782;28;20113;-83
2023/04/26 05:14:03;;;;;;;19.23;5.22;;;;;;;;;;4988382;28;20018;-80
2023/04/26 05:16:31;;;;;;;8.70;3.90;;;;;;;;;;4993499;28;20042;-79
2023/04/26 05:18:58;;;;;;;11.05;4.13;;;;;;;;;;4993170;28;20037;-82
2023/04/26 05:21:27;;;;;;;11.50;4.20;;;;;;;;;;5010037;28;20034;-81
2023/04/26 05:23:54;;;;;;;11.82;4.20;;;;;;;;;;4989431;28;20027;-81
2023/04/26 05:26:20;;;;;;;6.82;4.15;;;;;;;;;;5018933;28;20122;-82
2023/04/26 05:29:08;;;;;;;9.43;4.45;;;;;;;;;;5011560;28;20104;-82
2023/04/26 05:32:03;;;;;;;11.90;4.40;;;;;;;;;;4981427;28;20038;-83
2023/04/26 05:34:43;;;;;;;17.20;5.28;;;;;;;;;;4999169;28;20487;-81
2023/04/26 05:37:13;;;;;;;28.23;6.72;;;;;;;;;;5026573;28;20040;-84
2023/04/26 05:39:40;;;;;;;20.63;5.95;;;;;;;;;;4980378;28;20091;-82
2023/04/26 05:42:07;;;;;;;16.75;6.03;;;;;;;;;;4996374;28;20030;-87
2023/04/26 05:44:32;;;;;;;12.35;4.78;;;;;;;;;;4990966;28;20042;-82
2023/04/26 05:47:01;;;;;;;12.93;5.25;;;;;;;;;;4991736;28;20386;-83
2023/04/26 05:49:30;;;;;;;14.27;5.38;;;;;;;;;;4992831;28;20029;-81
2023/04/26 05:52:02;;;;;;;18.77;7.72;;;;;;;;;;4992944;28;20441;-80
2023/04/26 05:54:30;;;;;;;9.93;5.18;;;;;;;;;;5008053;28;20046;-83
2023/04/26 05:56:56;;;;;;;16.45;6.82;;;;;;;;;;5008239;28;20057;-84
2023/04/26 05:59:30;;;;;;;9.23;4.72;;;;;;;;;;4992060;28;20523;-84
2023/04/26 06:01:55;;;;;;;13.32;5.05;;;;;;;;;;4991830;28;20057;-83
2023/04/26 06:04:21;;;;;;;13.07;4.43;;;;;;;;;;5007987;28;20698;-83
2023/04/26 06:07:00;;;;;;;10.65;3.65;;;;;;;;;;4992997;28;20100;-81
2023/04/26 06:09:27;;;;;;;10.68;3.55;;;;;;;;;;4991886;28;20033;-82
2023/04/26 06:11:53;;;;;;;10.30;3.70;;;;;;;;;;4992824;28;20031;-82
2023/04/26 06:14:21;;;;;;;8.60;3.17;;;;;;;;;;4992463;28;20137;-83
2023/04/26 06:16:48;;;;;;;6.95;3.15;;;;;;;;;;4975495;28;20528;-83
2023/04/26 06:19:14;;;;;;;9.00;3.40;;;;;;;;;;4972257;28;20105;-83
2023/04/26 06:21:40;;;;;;;12.15;3.50;;;;;;;;;;4990922;28;20027;-83
2023/04/26 06:24:06;;;;;;;8.25;4.05;;;;;;;;;;4992306;28;20030;-83
2023/04/26 06:26:33;;;;;;;10.93;4.03;;;;;;;;;;4975674;28;20029;-84
2023/04/26 06:29:01;;;;;;;11.35;3.40;;;;;;;;;;4991466;28;20121;-83
2023/04/26 06:31:27;;;;;;;7.78;3.35;;;;;;;;;;4992305;28;20064;-82
2023/04/26 06:33:56;;;;;;;12.02;4.13;;;;;;;;;;4991403;28;20520;-83
2023/04/26 06:36:27;;;;;;;12.63;4.13;;;;;;;;;;4976005;28;20038;-82
2023/04/26 06:38:53;;;;;;;8.25;4.13;;;;;;;;;;4976103;28;20129;-81
2023/04/26 06:41:21;;;;;;;9.93;3.80;;;;;;;;;;4991797;28;20176;-81
2023/04/26 06:43:48;;;;;;;7.20;3.63;;;;;;;;;;4996622;28;20042;-83
2023/04/26 06:46:22;;;;;;;7.43;3.65;;;;;;;;;;5009966;28;20027;-82
2023/04/26 06:48:54;;;;;;;8.07;4.18;;;;;;;;;;5010556;28;20121;-84
2023/04/26 06:51:25;;;;;;;7.50;3.60;;;;;;;;;;5010403;28;20048;-82
2023/04/26 06:53:53;;;;;;;6.47;3.10;;;;;;;;;;4994383;28;20121;-82
2023/04/26 06:56:18;;;;;;;10.52;3.58;;;;;;;;;;4994176;28;20109;-85
2023/04/26 06:59:03;;;;;;;10.98;3.85;;;;;;;;;;4993005;28;20042;-82
2023/04/26 07:01:32;;;;;;;10.48;3.40;;;;;;;;;;4998865;28;20038;-84
2023/04/26 07:04:09;;;;;;;12.38;4.53;;;;;;;;;;4995662;28;20043;-80
2023/04/26 07:06:36;;;;;;;11.40;4.65;;;;;;;;;;4995031;28;20053;-83
2023/04/26 07:09:03;;;;;;;9.82;4.03;;;;;;;;;;4991895;28;20058;-82
2023/04/26 07:11:30;;;;;;;9.05;5.00;;;;;;;;;;4993924;28;20049;-83
2023/04/26 07:13:56;;;;;;;13.07;3.67;;;;;;;;;;4975803;28;20118;-84
2023/04/26 07:16:22;;;;;;;7.50;3.80;;;;;;;;;;4991958;28;20542;-84
2023/04/26 07:18:48;;;;;;;9.38;3.83;;;;;;;;;;4991979;28;20026;-82
2023/04/26 07:21:14;;;;;;;9.82;4.47;;;;;;;;;;4993943;28;20539;-82
2023/04/26 07:23:41;;;;;;;11.85;5.40;;;;;;;;;;4992496;28;20026;-81
2023/04/26 07:26:12;;;;;;;9.65;4.20;;;;;;;;;;4991551;28;20522;-81
2023/04/26 07:28:39;;;;;;;10.73;4.95;;;;;;;;;;4984235;28;20034;-82
2023/04/26 07:31:08;;;;;;;9.38;4.28;;;;;;;;;;4992724;28;20026;-81
2023/04/26 07:33:34;;;;;;;11.50;4.68;;;;;;;;;;4995205;28;20073;-82
2023/04/26 07:36:00;;;;;;;10.80;4.65;;;;;;;;;;5004444;28;20086;-81
2023/04/26 07:38:26;;;;;;;10.35;5.10;;;;;;;;;;5002765;28;20087;-83
2023/04/26 07:40:52;;;;;;;7.97;4.53;;;;;;;;;;4994971;28;20451;-81
2023/04/26 07:43:19;;;;;;;7.53;3.00;;;;;;;;;;4995286;28;20042;-81
2023/04/26 07:45:45;;;;;;;9.15;4.22;;;;;;;;;;4988441;28;20484;-82
2023/04/26 07:48:12;;;;;;;10.90;4.40;;;;;;;;;;5010046;28;20400;-82
2023/04/26 07:50:39;;;;;;;13.45;6.22;;;;;;;;;;4986298;28;20030;-83
2023/04/26 07:53:05;;;;;;;7.43;3.08;;;;;;;;;;4995776;28;20121;-83
2023/04/26 07:55:32;;;;;;;6.07;3.30;;;;;;;;;;4995457;28;20110;-84
2023/04/26 07:57:58;;;;;;;7.45;4.07;;;;;;;;;;4995629;28;20544;-82
2023/04/26 08:00:24;;;;;;;8.50;3.35;;;;;;;;;;4995240;28;20121;-83
2023/04/26 08:02:50;;;;;;;7.07;2.63;;;;;;;;;;4978118;28;20451;-82
2023/04/26 08:05:18;;;;;;;9.32;3.72;;;;;;;;;;4993985;28;20018;-85
2023/04/26 08:07:44;;;;;;;9.25;3.70;;;;;;;;;;4990479;28;20109;-81
2023/04/26 08:10:12;;;;;;;13.93;4.00;;;;;;;;;;4991275;28;20130;-83
2023/04/26 08:12:38;;;;;;;5.38;3.00;;;;;;;;;;4992476;28;20088;-82
2023/04/26 08:15:05;;;;;;;15.27;3.92;;;;;;;;;;4996249;28;20053;-84
2023/04/26 08:17:31;;;;;;;20.27;3.63;;;;;;;;;;4996855;28;20129;-82
2023/04/26 08:20:08;;;;;;;16.48;5.15;;;;;;;;;;4995406;28;20229;-86
2023/04/26 08:22:34;;;;;;;23.48;4.22;;;;;;;;;;4996290;28;20038;-84
2023/04/26 08:25:00;;;;;;;31.65;4.68;;;;;;;;;;5006894;28;20438;-83
2023/04/26 08:27:27;;;;;;;17.83;4.45;;;;;;;;;;5014099;28;20037;-83
2023/04/26 08:29:53;;;;;;;23.88;4.13;;;;;;;;;;5002876;28;20030;-84
2023/04/26 08:32:19;;;;;;;11.13;3.55;;;;;;;;;;4994501;28;20050;-82
2023/04/26 08:34:44;;;;;;;8.95;3.80;;;;;;;;;;5012273;28;20492;-81
2023/04/26 08:37:10;;;;;;;12.13;4.22;;;;;;;;;;4994727;28;20472;-83
2023/04/26 08:39:37;;;;;;;13.90;4.47;;;;;;;;;;4999762;28;20026;-80
2023/04/26 08:42:13;;;;;;;8.63;3.60;;;;;;;;;;4995299;28;20085;-83
2023/04/26 08:44:40;;;;;;;;;;;;;;;;;;4993947;28;20051;-81
2023/04/26 08:47:19;;;;;;;12.65;4.20;;;;;;;;;;4994823;28;19972;-82
2023/04/26 08:49:52;;;;;;;6.35;3.03;;;;;;;;;;4994046;28;20041;-81
2023/04/26 08:52:22;;;;;;;6.60;3.28;;;;;;;;;;5009882;28;20511;-80
2023/04/26 08:54:51;;;;;;;6.85;3.20;;;;;;;;;;4994854;28;20042;-82
2023/04/26 08:57:18;;;;;;;8.60;3.92;;;;;;;;;;4996015;28;20108;-80
2023/04/26 08:59:45;;;;;;;14.57;5.10;;;;;;;;;;4994769;28;20028;-83
2023/04/26 09:02:17;;;;;;;10.00;3.67;;;;;;;;;;4993803;28;20139;-80
2023/04/26 09:04:47;;;;;;;11.10;3.22;;;;;;;;;;4997290;28;20065;-81
2023/04/26 09:07:34;;;;;;;6.13;2.45;;;;;;;;;;5010104;28;20433;-84
2023/04/26 09:10:05;;;;;;;9.05;2.50;;;;;;;;;;4994450;28;20038;-84
2023/04/26 09:12:32;;;;;;;9.38;2.78;;;;;;;;;;4993839;28;20038;-82
2023/04/26 09:15:00;;;;;;;8.80;2.63;;;;;;;;;;4993879;28;20077;-83
2023/04/26 09:17:33;;;;;;;14.27;2.85;;;;;;;;;;4993350;28;20471;-85
2023/04/26 09:20:00;;;;;;;7.07;1.92;;;;;;;;;;4994487;28;20038;-80
2023/04/26 09:22:32;;;;;;;11.63;3.15;;;;;;;;;;4992771;28;20061;-84
2023/04/26 09:24:58;;;;;;;5.75;1.83;;;;;;;;;;4998612;28;20046;-83
2023/04/26 09:27:40;;;;;;;4.65;1.60;;;;;;;;;;5002436;28;20030;-83
2023/04/26 09:30:10;;;;;;;3.45;1.63;;;;;;;;;;4995869;28;20035;-82
2023/04/26 09:32:48;;;;;;;3.40;1.73;;;;;;;;;;4993732;28;20415;-81
2023/04/26 09:35:27;;;;;;;6.72;2.30;;;;;;;;;;4994190;28;20038;-83
2023/04/26 09:38:04;;;;;;;8.43;2.30;;;;;;;;;;4993636;28;20087;-84
2023/04/26 09:40:36;;;;;;;3.28;1.85;;;;;;;;;;5007923;28;20035;-81
2023/04/26 09:43:08;;;;;;;8.35;1.92;;;;;;;;;;4993231;28;20030;-83
2023/04/26 09:45:51;;;;;;;8.13;1.98;;;;;;;;;;4992897;28;20134;-83
2023/04/26 09:48:24;;;;;;;9.63;1.88;;;;;;;;;;4999908;28;20060;-82
2023/04/26 09:51:00;;;;;;;9.32;2.13;;;;;;;;;;5018153;28;20123;-82
2023/04/26 09:53:38;;;;;;;11.05;2.92;;;;;;;;;;4993499;28;20423;-82
2023/04/26 09:56:09;;;;;;;3.92;1.70;;;;;;;;;;4995079;28;20049;-81
2023/04/26 09:59:03;;;;;;;6.18;1.60;;;;;;;;;;5007516;28;20034;-79
2023/04/26 10:01:32;;;;;;;4.53;1.67;;;;;;;;;;4992515;28;20080;-82
2023/04/26 10:04:03;;;;;;;8.07;1.67;;;;;;;;;;5008436;28;20519;-81
2023/04/26 10:06:35;;;;;;;7.53;1.90;;;;;;;;;;5010973;28;20042;-82
2023/04/26 10:09:04;;;;;;;3.42;1.42;;;;;;;;;;5013899;28;20037;-80
2023/04/26 10:11:30;;;;;;;4.35;1.88;;;;;;;;;;4992994;28;20138;-82
2023/04/26 10:13:58;;;;;;;8.07;1.92;;;;;;;;;;4991716;28;20112;-82
2023/04/26 10:16:27;;;;;;;4.18;1.38;;;;;;;;;;4975772;28;20373;-83
2023/04/26 10:18:53;;;;;;;2.00;1.00;;;;;;;;;;4991295;28;20496;-81
2023/04/26 10:21:24;;;;;;;3.85;1.45;;;;;;;;;;4991143;28;20173;-81
2023/04/26 10:23:51;;;;;;;4.85;1.40;;;;;;;;;;4992289;28;20057;-82
2023/04/26 10:26:48;;;;;;;7.38;1.60;;;;;;;;;;4990494;28;20513;-83
2023/04/26 10:29:15;;;;;;;5.00;1.13;;;;;;;;;;5007485;28;20065;-85
2023/04/26 10:32:00;;;;;;;5.10;2.38;;;;;;;;;;4991248;28;20064;-82
2023/04/26 10:34:26;;;;;;;13.35;3.17;;;;;;;;;;4992752;28;20080;-81
2023/04/26 10:37:15;;;;;;;12.05;2.63;;;;;;;;;;4990760;28;20037;-83
2023/04/26 10:39:45;;;;;;;10.02;2.60;;;;;;;;;;4993356;28;20018;-80
2023/04/26 10:42:22;;;;;;;3.67;1.50;;;;;;;;;;4991627;28;20026;-81
2023/04/26 10:44:57;;;;;;;4.15;1.50;;;;;;;;;;4983592;28;20042;-81
2023/04/26 10:47:33;;;;;;;;;;;;;;;;;;4991495;28;20034;-82
2023/04/26 10:50:20;;;;;;;4.57;1.30;;;;;;;;;;4991929;28;19957;-83
2023/04/26 10:53:02;;;;;;;8.88;2.15;;;;;;;;;;4973801;28;20506;-82
2023/04/26 10:55:47;;;;;;;4.57;1.10;;;;;;;;;;4994686;28;20455;-81
2023/04/26 10:58:34;;;;;;;3.92;1.50;;;;;;;;;;4993119;28;20133;-81
2023/04/26 11:01:16;;;;;;;5.47;1.80;;;;;;;;;;4992385;28;20480;-82
2023/04/26 11:04:03;;;;;;;10.05;2.20;;;;;;;;;;4999196;28;20037;-81
2023/04/26 11:06:52;;;;;;;11.27;2.70;;;;;;;;;;4989965;28;20762;-82
2023/04/26 11:09:38;;;;;;;13.55;3.47;;;;;;;;;;4995964;28;20113;-82
2023/04/26 11:12:05;;;;;;;6.57;2.00;;;;;;;;;;4993870;28;20026;-79
2023/04/26 11:14:35;;;;;;;16.75;2.95;;;;;;;;;;4998242;28;20089;-80
2023/04/26 11:17:05;;;;;;;6.30;2.10;;;;;;;;;;4998479;28;20037;-78
2023/04/26 11:19:32;;;;;;;6.93;1.88;;;;;;;;;;4998344;28;20404;-79
2023/04/26 11:22:02;;;;;;;8.98;3.00;;;;;;;;;;4995848;28;20040;-83
2023/04/26 11:24:32;;;;;;;6.35;2.70;;;;;;;;;;5000625;28;20564;-81
2023/04/26 11:26:58;;;;;;;7.53;2.33;;;;;;;;;;4999655;28;20042;-80
2023/04/26 11:29:25;;;;;;;7.22;2.20;;;;;;;;;;4996379;28;20109;-79
2023/04/26 11:31:56;;;;;;;5.65;2.42;;;;;;;;;;5006270;28;20026;-81
2023/04/26 11:34:38;;;;;;;10.10;4.57;;;;;;;;;;5005341;28;20146;-79
2023/04/26 11:37:05;;;;;;;10.93;3.60;;;;;;;;;;5001677;28;20038;-82
2023/04/26 11:39:33;;;;;;;7.38;2.60;;;;;;;;;;4997160;28;20089;-82
2023/04/26 11:42:11;;;;;;;4.50;1.70;;;;;;;;;;4999851;28;20113;-82
2023/04/26 11:44:39;;;;;;;3.42;1.77;;;;;;;;;;5012877;28;20049;-82
2023/04/26 11:47:08;;;;;;;2.22;1.35;;;;;;;;;;5004788;28;20053;-80
2023/04/26 11:49:40;;;;;;;1.27;0.80;;;;;;;;;;4994157;28;20042;-80
2023/04/26 11:52:07;;;;;;;4.35;1.27;;;;;;;;;;5005676;28;20057;-80
2023/04/26 11:54:38;;;;;;;2.33;1.20;;;;;;;;;;5001363;28;20084;-81
2023/04/26 11:57:15;;;;;;;5.13;1.17;;;;;;;;;;5002504;28;20046;-79
2023/04/26 11:59:44;;;;;;;20.50;2.05;;;;;;;;;;5007372;28;20103;-78
2023/04/26 12:02:10;;;;;;;2.67;1.23;;;;;;;;;;4996634;28;20018;-79
2023/04/26 12:04:40;;;;;;;5.72;1.45;;;;;;;;;;4995195;28;20042;-78
2023/04/26 12:07:08;;;;;;;12.73;2.50;;;;;;;;;;4998306;28;20406;-80
2023/04/26 12:09:35;;;;;;;18.50;3.92;;;;;;;;;;4997005;28;20026;-80
2023/04/26 12:12:05;;;;;;;8.05;2.10;;;;;;;;;;4997494;28;20049;-80
2023/04/26 12:14:39;;;;;;;6.03;2.40;;;;;;;;;;4998516;28;20109;-79
2023/04/26 12:17:07;;;;;;;2.75;1.50;;;;;;;;;;5013149;28;20034;-78
2023/04/26 12:19:35;;;;;;;3.28;1.10;;;;;;;;;;4999160;28;20069;-78
2023/04/26 12:22:01;;;;;;;2.97;1.13;;;;;;;;;;4990312;28;20043;-78
2023/04/26 12:24:32;;;;;;;3.53;1.10;;;;;;;;;;4992296;28;20070;-78
2023/04/26 12:26:58;;;;;;;7.20;1.17;;;;;;;;;;4994600;28;20038;-77
2023/04/26 12:29:23;;;;;;;4.18;1.20;;;;;;;;;;4992172;28;20492;-78
2023/04/26 12:31:49;;;;;;;1.48;0.95;;;;;;;;;;4995190;28;20036;-77
2023/04/26 12:34:15;;;;;;;2.67;0.82;;;;;;;;;;4994534;28;20034;-79
2023/04/26 12:36:43;;;;;;;3.50;1.10;;;;;;;;;;4995228;28;20053;-78
2023/04/26 12:39:12;;;;;;;4.35;1.10;;;;;;;;;;4995060;28;20026;-78
2023/04/26 12:41:39;;;;;;;6.97;1.65;;;;;;;;;;5010357;28;20062;-78
2023/04/26 12:44:06;;;;;;;3.03;0.88;;;;;;;;;;4995765;28;20075;-77
2023/04/26 12:46:33;;;;;;;3.78;1.10;;;;;;;;;;5011175;28;20031;-77
2023/04/26 12:48:58;;;;;;;3.55;1.25;;;;;;;;;;4996540;28;20026;-75
2023/04/26 12:51:26;;;;;;;3.05;1.23;;;;;;;;;;4985673;28;20052;-76
2023/04/26 12:53:52;;;;;;;2.30;1.00;;;;;;;;;;5003208;28;20101;-79
2023/04/26 12:56:18;;;;;;;2.13;0.90;;;;;;;;;;4992829;28;20041;-77
2023/04/26 12:58:44;;;;;;;4.38;1.00;;;;;;;;;;4992441;28;20404;-76
2023/04/26 13:01:12;;;;;;;5.40;1.40;;;;;;;;;;4993002;28;20518;-77
2023/04/26 13:03:39;;;;;;;7.47;2.45;;;;;;;;;;4995059;28;20042;-81
2023/04/26 13:06:06;;;;;;;5.20;1.63;;;;;;;;;;5007917;28;20045;-79
2023/04/26 13:08:32;;;;;;;4.50;1.17;;;;;;;;;;4992503;28;20121;-77
2023/04/26 13:11:00;;;;;;;4.35;1.20;;;;;;;;;;4993692;28;20153;-80
2023/04/26 13:13:26;;;;;;;3.03;1.27;;;;;;;;;;5010094;28;20034;-80
2023/04/26 13:15:52;;;;;;;4.03;1.67;;;;;;;;;;4993576;28;20096;-78
2023/04/26 13:18:18;;;;;;;2.67;1.30;;;;;;;;;;4993483;28;20053;-81
2023/04/26 13:20:45;;;;;;;2.28;1.10;;;;;;;;;;4994380;28;20039;-81
2023/04/26 13:23:11;;;;;;;2.65;1.10;;;;;;;;;;4992760;28;20046;-78
2023/04/26 13:25:37;;;;;;;2.38;1.30;;;;;;;;;;4993397;28;20087;-80
2023/04/26 13:28:03;;;;;;;8.40;1.30;;;;;;;;;;4993736;28;20523;-78
2023/04/26 13:30:29;;;;;;;3.85;1.42;;;;;;;;;;5008890;28;20037;-81
2023/04/26 13:32:56;;;;;;;4.55;1.48;;;;;;;;;;4993512;28;20042;-80
2023/04/26 13:35:22;;;;;;;2.58;1.45;;;;;;;;;;4991949;28;20037;-83
2023/04/26 13:37:48;;;;;;;3.15;1.15;;;;;;;;;;4993046;28;20061;-83
2023/04/26 13:40:16;;;;;;;3.22;1.20;;;;;;;;;;4991945;28;20508;-79
2023/04/26 13:42:43;;;;;;;3.08;1.00;;;;;;;;;;5008645;28;20129;-77
2023/04/26 13:45:10;;;;;;;3.60;1.35;;;;;;;;;;4994756;28;20034;-83
2023/04/26 13:47:38;;;;;;;3.78;1.02;;;;;;;;;;5009127;28;20065;-81
2023/04/26 13:50:03;;;;;;;3.55;1.25;;;;;;;;;;4994366;28;20026;-79
2023/04/26 13:52:30;;;;;;;1.73;1.00;;;;;;;;;;4994654;28;20070;-83
2023/04/26 13:54:56;;;;;;;5.80;1.25;;;;;;;;;;4995143;28;20459;-82
2023/04/26 13:57:22;;;;;;;5.97;1.20;;;;;;;;;;4995745;28;20125;-84
2023/04/26 13:59:48;;;;;;;5.15;1.20;;;;;;;;;;4992096;28;20134;-81
2023/04/26 14:02:15;;;;;;;7.53;1.20;;;;;;;;;;5010141;28;20117;-81
2023/04/26 14:04:40;;;;;;;3.65;1.00;;;;;;;;;;4993112;28;20525;-84
2023/04/26 14:07:09;;;;;;;12.55;1.33;;;;;;;;;;4991827;28;20030;-82
2023/04/26 14:09:35;;;;;;;5.47;1.30;;;;;;;;;;4993553;28;20026;-81
2023/04/26 14:12:04;;;;;;;6.75;1.58;;;;;;;;;;4993682;28;20061;-82
2023/04/26 14:14:31;;;;;;;1.77;0.80;;;;;;;;;;4987962;28;20497;-82
2023/04/26 14:16:58;;;;;;;5.95;1.10;;;;;;;;;;4994874;28;20038;-82
2023/04/26 14:19:25;;;;;;;4.90;1.10;;;;;;;;;;4993105;28;20027;-83
2023/04/26 14:21:51;;;;;;;8.15;2.15;;;;;;;;;;4990784;28;20030;-80
2023/04/26 14:24:17;;;;;;;4.72;1.00;;;;;;;;;;4993873;28;20506;-82
2023/04/26 14:26:45;;;;;;;2.17;0.80;;;;;;;;;;4994433;28;20041;-83
2023/04/26 14:29:11;;;;;;;6.20;1.15;;;;;;;;;;4974814;28;20588;-80
2023/04/26 14:31:37;;;;;;;2.70;1.20;;;;;;;;;;4983009;28;20058;-81
2023/04/26 14:34:02;;;;;;;0.80;0.60;;;;;;;;;;4991920;28;20085;-80
2023/04/26 14:36:28;;;;;;;6.15;1.20;;;;;;;;;;4993329;28;20069;-82
2023/04/26 14:38:54;;;;;;;1.77;0.90;;;;;;;;;;4977251;28;20060;-80
2023/04/26 14:41:21;;;;;;;2.60;0.90;;;;;;;;;;4993683;28;20034;-79
2023/04/26 14:43:50;;;;;;;4.50;1.30;;;;;;;;;;4991263;28;20034;-80
2023/04/26 14:46:17;;;;;;;13.40;1.95;;;;;;;;;;4993450;28;20141;-82